sensor_id;sensor_type;location;lat;lon;timestamp;temperature;humidity
31837;DHT22;18401;49.344;6.240;2024-03-23T00:55:59;10.00;99.90
31837;DHT22;18401;49.344;6.240;2024-03-23T00:58:25;10.00;99.90
31837;DHT22;18401;49.344;6.240;2024-03-23T01:00:50;10.10;99.90
31837;DHT22;18401;49.344;6.240;2024-03-23T01:03:16;10.10;99.90
31837;DHT22;18401;49.344;6.240;2024-03-23T01:05:42;10.10;99.90
31837;DHT22;18401;49.344;6.240;2024-03-23T01:08:07;10.10;99.90
31837;DHT22;18401;49.344;6.240;2024-03-23T01:10:33;10.10;99.90
31837;DHT22;18401;49.344;6.240;2024-03-23T01:12:58;10.00;99.90
31837;DHT22;18401;49.344;6.240;2024-03-23T01:15:24;10.10;99.90
31837;DHT22;18401;49.344;6.240;2024-03-23T01:17:50;10.00;99.90
31837;DHT22;18401;49.344;6.240;2024-03-23T01:20:15;10.10;99.90
31837;DHT22;18401;49.344;6.240;2024-03-23T01:22:42;10.10;99.90
31837;DHT22;18401;49.344;6.240;2024-03-23T01:25:07;10.10;1.00
31837;DHT22;18401;49.344;6.240;2024-03-23T01:27:33;10.00;1.00
31837;DHT22;18401;49.344;6.240;2024-03-23T01:29:59;10.10;99.90
31837;DHT22;18401;49.344;6.240;2024-03-23T01:32:25;10.10;99.90
31837;DHT22;18401;49.344;6.240;2024-03-23T01:34:51;10.00;1.00
31837;DHT22;18401;49.344;6.240;2024-03-23T01:37:16;9.90;99.90
31837;DHT22;18401;49.344;6.240;2024-03-23T01:39:42;9.90;99.90
31837;DHT22;18401;49.344;6.240;2024-03-23T01:42:07;9.90;99.90
31837;DHT22;18401;49.344;6.240;2024-03-23T01:44:33;9.90;99.90
31837;DHT22;18401;49.344;6.240;2024-03-23T01:46:59;9.90;99.90
31837;DHT22;18401;49.344;6.240;2024-03-23T01:49:24;9.80;99.90
31837;DHT22;18401;49.344;6.240;2024-03-23T01:51:50;9.80;99.90
31837;DHT22;18401;49.344;6.240;2024-03-23T01:54:16;9.80;1.00
31837;DHT22;18401;49.344;6.240;2024-03-23T01:56:41;9.70;99.90
31837;DHT22;18401;49.344;6.240;2024-03-23T01:59:07;9.70;1.00
31837;DHT22;18401;49.344;6.240;2024-03-23T02:01:35;9.70;99.90
31837;DHT22;18401;49.344;6.240;2024-03-23T02:04:04;9.50;99.90
31837;DHT22;18401;49.344;6.240;2024-03-23T02:06:29;9.40;99.90
31837;DHT22;18401;49.344;6.240;2024-03-23T02:08:55;9.20;99.90
31837;DHT22;18401;49.344;6.240;2024-03-23T02:11:21;9.10;99.90
31837;DHT22;18401;49.344;6.240;2024-03-23T02:13:47;9.00;99.90
31837;DHT22;18401;49.344;6.240;2024-03-23T02:16:13;8.90;99.90
31837;DHT22;18401;49.344;6.240;2024-03-23T02:18:39;8.80;99.90
31837;DHT22;18401;49.344;6.240;2024-03-23T02:21:05;8.70;99.90
31837;DHT22;18401;49.344;6.240;2024-03-23T02:23:30;8.60;99.90
31837;DHT22;18401;49.344;6.240;2024-03-23T02:25:56;8.50;99.90
31837;DHT22;18401;49.344;6.240;2024-03-23T02:28:22;8.50;99.90
31837;DHT22;18401;49.344;6.240;2024-03-23T02:30:51;8.40;99.90
31837;DHT22;18401;49.344;6.240;2024-03-23T02:33:17;8.40;99.90
31837;DHT22;18401;49.344;6.240;2024-03-23T02:35:43;8.40;99.90
31837;DHT22;18401;49.344;6.240;2024-03-23T02:38:09;8.40;99.90
31837;DHT22;18401;49.344;6.240;2024-03-23T02:40:35;8.50;99.90
31837;DHT22;18401;49.344;6.240;2024-03-23T02:43:02;8.50;99.90
31837;DHT22;18401;49.344;6.240;2024-03-23T02:45:28;8.40;99.90
31837;DHT22;18401;49.344;6.240;2024-03-23T02:47:54;8.30;99.90
31837;DHT22;18401;49.344;6.240;2024-03-23T02:50:20;8.30;99.90
31837;DHT22;18401;49.344;6.240;2024-03-23T02:52:46;8.30;99.90
31837;DHT22;18401;49.344;6.240;2024-03-23T02:55:12;8.30;99.90
31837;DHT22;18401;49.344;6.240;2024-03-23T02:57:37;8.30;99.90
31837;DHT22;18401;49.344;6.240;2024-03-23T03:00:04;8.30;99.90
31837;DHT22;18401;49.344;6.240;2024-03-23T03:02:30;8.30;99.90
31837;DHT22;18401;49.344;6.240;2024-03-23T03:04:56;8.30;99.90
31837;DHT22;18401;49.344;6.240;2024-03-23T03:07:22;8.20;99.90
31837;DHT22;18401;49.344;6.240;2024-03-23T03:09:47;8.20;99.90
31837;DHT22;18401;49.344;6.240;2024-03-23T03:12:13;8.20;1.00
31837;DHT22;18401;49.344;6.240;2024-03-23T03:14:38;8.20;27.30
31837;DHT22;18401;49.344;6.240;2024-03-23T03:17:04;8.00;99.90
31837;DHT22;18401;49.344;6.240;2024-03-23T03:19:30;8.00;99.90
31837;DHT22;18401;49.344;6.240;2024-03-23T03:21:55;7.90;99.90
31837;DHT22;18401;49.344;6.240;2024-03-23T03:24:21;7.90;1.00
31837;DHT22;18401;49.344;6.240;2024-03-23T03:26:47;7.80;16.80
31837;DHT22;18401;49.344;6.240;2024-03-23T03:29:13;7.70;99.90
31837;DHT22;18401;49.344;6.240;2024-03-23T03:31:42;7.70;99.90
31837;DHT22;18401;49.344;6.240;2024-03-23T03:34:08;7.70;99.90
31837;DHT22;18401;49.344;6.240;2024-03-23T03:36:34;7.80;99.90
31837;DHT22;18401;49.344;6.240;2024-03-23T03:38:59;7.70;99.90
31837;DHT22;18401;49.344;6.240;2024-03-23T03:41:25;7.70;99.90
31837;DHT22;18401;49.344;6.240;2024-03-23T03:43:51;7.70;99.90
31837;DHT22;18401;49.344;6.240;2024-03-23T03:46:17;7.60;29.70
31837;DHT22;18401;49.344;6.240;2024-03-23T03:48:42;7.70;99.90
31837;DHT22;18401;49.344;6.240;2024-03-23T03:51:11;7.60;72.80
31837;DHT22;18401;49.344;6.240;2024-03-23T03:53:37;7.60;99.90
31837;DHT22;18401;49.344;6.240;2024-03-23T03:56:03;7.60;99.90
31837;DHT22;18401;49.344;6.240;2024-03-23T03:58:28;7.70;99.90
31837;DHT22;18401;49.344;6.240;2024-03-23T04:00:54;7.60;90.20
31837;DHT22;18401;49.344;6.240;2024-03-23T04:03:20;7.60;99.90
31837;DHT22;18401;49.344;6.240;2024-03-23T04:05:55;7.60;99.90
31837;DHT22;18401;49.344;6.240;2024-03-23T04:08:21;7.50;1.00
31837;DHT22;18401;49.344;6.240;2024-03-23T04:10:47;7.50;99.90
31837;DHT22;18401;49.344;6.240;2024-03-23T04:13:13;7.50;99.90
31837;DHT22;18401;49.344;6.240;2024-03-23T04:15:39;7.50;99.90
31837;DHT22;18401;49.344;6.240;2024-03-23T04:18:05;7.50;99.90
31837;DHT22;18401;49.344;6.240;2024-03-23T04:20:30;7.60;1.00
31837;DHT22;18401;49.344;6.240;2024-03-23T04:22:58;7.60;99.90
31837;DHT22;18401;49.344;6.240;2024-03-23T04:25:23;7.50;99.90
31837;DHT22;18401;49.344;6.240;2024-03-23T04:27:49;7.50;75.60
31837;DHT22;18401;49.344;6.240;2024-03-23T04:30:15;7.50;20.00
31837;DHT22;18401;49.344;6.240;2024-03-23T04:32:41;7.50;1.00
31837;DHT22;18401;49.344;6.240;2024-03-23T04:35:07;7.40;99.90
31837;DHT22;18401;49.344;6.240;2024-03-23T04:37:37;7.30;99.90
31837;DHT22;18401;49.344;6.240;2024-03-23T04:40:03;7.30;1.00
31837;DHT22;18401;49.344;6.240;2024-03-23T04:42:29;7.30;99.90
31837;DHT22;18401;49.344;6.240;2024-03-23T04:44:55;7.20;99.90
31837;DHT22;18401;49.344;6.240;2024-03-23T04:47:20;7.20;99.90
31837;DHT22;18401;49.344;6.240;2024-03-23T04:49:46;7.10;99.90
31837;DHT22;18401;49.344;6.240;2024-03-23T04:52:12;7.10;99.90
31837;DHT22;18401;49.344;6.240;2024-03-23T04:54:37;7.10;99.90
31837;DHT22;18401;49.344;6.240;2024-03-23T04:57:05;7.00;99.90
31837;DHT22;18401;49.344;6.240;2024-03-23T04:59:31;7.00;99.90
31837;DHT22;18401;49.344;6.240;2024-03-23T05:01:57;7.00;99.90
31837;DHT22;18401;49.344;6.240;2024-03-23T05:04:23;7.00;99.90
31837;DHT22;18401;49.344;6.240;2024-03-23T05:06:48;6.90;99.90
31837;DHT22;18401;49.344;6.240;2024-03-23T05:09:14;6.90;99.90
31837;DHT22;18401;49.344;6.240;2024-03-23T05:11:40;6.90;99.90
31837;DHT22;18401;49.344;6.240;2024-03-23T05:14:07;6.90;99.90
31837;DHT22;18401;49.344;6.240;2024-03-23T05:16:32;6.80;99.90
31837;DHT22;18401;49.344;6.240;2024-03-23T05:18:58;6.80;99.90
31837;DHT22;18401;49.344;6.240;2024-03-23T05:21:24;6.70;99.90
31837;DHT22;18401;49.344;6.240;2024-03-23T05:23:49;6.60;99.90
31837;DHT22;18401;49.344;6.240;2024-03-23T05:26:17;6.60;99.90
31837;DHT22;18401;49.344;6.240;2024-03-23T05:28:42;6.70;99.90
31837;DHT22;18401;49.344;6.240;2024-03-23T05:31:09;6.60;99.90
31837;DHT22;18401;49.344;6.240;2024-03-23T05:33:36;6.70;99.90
31837;DHT22;18401;49.344;6.240;2024-03-23T05:36:03;6.60;94.20
31837;DHT22;18401;49.344;6.240;2024-03-23T05:38:29;6.50;97.20
31837;DHT22;18401;49.344;6.240;2024-03-23T05:43:21;6.40;99.90
31837;DHT22;18401;49.344;6.240;2024-03-23T05:45:53;6.30;99.90
31837;DHT22;18401;49.344;6.240;2024-03-23T05:48:19;6.20;99.90
31837;DHT22;18401;49.344;6.240;2024-03-23T05:50:45;6.00;99.90
31837;DHT22;18401;49.344;6.240;2024-03-23T05:53:10;6.00;99.90
31837;DHT22;18401;49.344;6.240;2024-03-23T05:55:38;5.90;99.90
31837;DHT22;18401;49.344;6.240;2024-03-23T05:58:04;5.80;99.90
31837;DHT22;18401;49.344;6.240;2024-03-23T06:00:29;6.00;99.90
31837;DHT22;18401;49.344;6.240;2024-03-23T06:02:55;6.10;99.90
31837;DHT22;18401;49.344;6.240;2024-03-23T06:05:20;6.10;99.90
31837;DHT22;18401;49.344;6.240;2024-03-23T06:07:46;6.20;99.90
31837;DHT22;18401;49.344;6.240;2024-03-23T06:10:12;6.30;99.90
31837;DHT22;18401;49.344;6.240;2024-03-23T06:12:37;6.40;99.90
31837;DHT22;18401;49.344;6.240;2024-03-23T06:15:03;6.50;99.90
31837;DHT22;18401;49.344;6.240;2024-03-23T06:17:29;6.50;99.90
31837;DHT22;18401;49.344;6.240;2024-03-23T06:19:54;6.60;99.90
31837;DHT22;18401;49.344;6.240;2024-03-23T06:22:20;6.60;99.90
31837;DHT22;18401;49.344;6.240;2024-03-23T06:24:46;6.60;99.90
31837;DHT22;18401;49.344;6.240;2024-03-23T06:27:12;6.60;99.90
31837;DHT22;18401;49.344;6.240;2024-03-23T06:29:37;6.30;99.90
31837;DHT22;18401;49.344;6.240;2024-03-23T06:32:03;6.00;1.00
31837;DHT22;18401;49.344;6.240;2024-03-23T06:34:29;5.80;30.70
31837;DHT22;18401;49.344;6.240;2024-03-23T06:36:55;5.70;99.90
31837;DHT22;18401;49.344;6.240;2024-03-23T06:39:21;5.90;99.90
31837;DHT22;18401;49.344;6.240;2024-03-23T06:41:52;6.00;99.90
31837;DHT22;18401;49.344;6.240;2024-03-23T06:44:19;6.10;1.00
31837;DHT22;18401;49.344;6.240;2024-03-23T06:46:45;6.20;22.00
31837;DHT22;18401;49.344;6.240;2024-03-23T06:49:11;6.30;88.10
31837;DHT22;18401;49.344;6.240;2024-03-23T06:51:36;6.40;99.90
31837;DHT22;18401;49.344;6.240;2024-03-23T06:54:03;6.40;65.30
31837;DHT22;18401;49.344;6.240;2024-03-23T06:56:29;6.20;82.30
31837;DHT22;18401;49.344;6.240;2024-03-23T06:58:56;5.80;55.10
31837;DHT22;18401;49.344;6.240;2024-03-23T07:01:23;5.40;99.90
31837;DHT22;18401;49.344;6.240;2024-03-23T07:03:48;5.10;99.90
31837;DHT22;18401;49.344;6.240;2024-03-23T07:06:14;5.10;67.80
31837;DHT22;18401;49.344;6.240;2024-03-23T07:08:40;5.10;99.90
31837;DHT22;18401;49.344;6.240;2024-03-23T07:11:05;5.10;99.90
31837;DHT22;18401;49.344;6.240;2024-03-23T07:13:31;5.20;99.90
31837;DHT22;18401;49.344;6.240;2024-03-23T07:15:58;5.10;99.90
31837;DHT22;18401;49.344;6.240;2024-03-23T07:18:25;5.20;99.90
31837;DHT22;18401;49.344;6.240;2024-03-23T07:20:57;5.20;99.90
31837;DHT22;18401;49.344;6.240;2024-03-23T07:23:24;5.30;99.90
31837;DHT22;18401;49.344;6.240;2024-03-23T07:26:05;5.40;99.90
31837;DHT22;18401;49.344;6.240;2024-03-23T07:28:31;5.40;99.90
31837;DHT22;18401;49.344;6.240;2024-03-23T07:33:30;5.50;1.00
31837;DHT22;18401;49.344;6.240;2024-03-23T07:35:56;5.50;1.00
31837;DHT22;18401;49.344;6.240;2024-03-23T07:38:21;5.60;99.90
31837;DHT22;18401;49.344;6.240;2024-03-23T07:40:47;5.60;99.90
31837;DHT22;18401;49.344;6.240;2024-03-23T07:43:15;5.60;2.60
31837;DHT22;18401;49.344;6.240;2024-03-23T07:45:41;5.50;40.60
31837;DHT22;18401;49.344;6.240;2024-03-23T07:48:06;5.50;1.00
31837;DHT22;18401;49.344;6.240;2024-03-23T07:50:32;5.60;25.40
31837;DHT22;18401;49.344;6.240;2024-03-23T07:52:57;5.80;1.00
31837;DHT22;18401;49.344;6.240;2024-03-23T07:55:23;5.90;99.90
31837;DHT22;18401;49.344;6.240;2024-03-23T07:57:51;5.70;99.90
31837;DHT22;18401;49.344;6.240;2024-03-23T08:00:17;5.70;99.90
31837;DHT22;18401;49.344;6.240;2024-03-23T08:02:42;5.60;99.90
31837;DHT22;18401;49.344;6.240;2024-03-23T08:05:08;6.20;95.40
31837;DHT22;18401;49.344;6.240;2024-03-23T08:07:34;6.60;99.90
31837;DHT22;18401;49.344;6.240;2024-03-23T08:09:59;6.80;74.40
31837;DHT22;18401;49.344;6.240;2024-03-23T08:12:25;6.90;1.00
31837;DHT22;18401;49.344;6.240;2024-03-23T08:14:51;7.00;99.90
31837;DHT22;18401;49.344;6.240;2024-03-23T08:17:17;7.00;99.90
31837;DHT22;18401;49.344;6.240;2024-03-23T08:19:42;7.50;99.90
31837;DHT22;18401;49.344;6.240;2024-03-23T08:22:08;7.40;1.00
31837;DHT22;18401;49.344;6.240;2024-03-23T08:24:34;7.60;99.90
31837;DHT22;18401;49.344;6.240;2024-03-23T08:27:00;7.70;99.90
31837;DHT22;18401;49.344;6.240;2024-03-23T08:29:26;8.00;1.00
31837;DHT22;18401;49.344;6.240;2024-03-23T08:31:51;8.00;99.90
31837;DHT22;18401;49.344;6.240;2024-03-23T08:34:17;8.00;99.90
31837;DHT22;18401;49.344;6.240;2024-03-23T08:36:43;8.50;99.90
31837;DHT22;18401;49.344;6.240;2024-03-23T08:39:09;8.10;99.90
31837;DHT22;18401;49.344;6.240;2024-03-23T08:41:34;7.90;72.80
31837;DHT22;18401;49.344;6.240;2024-03-23T08:44:00;7.60;42.00
31837;DHT22;18401;49.344;6.240;2024-03-23T08:46:25;7.60;30.50
31837;DHT22;18401;49.344;6.240;2024-03-23T08:48:52;8.60;99.90
31837;DHT22;18401;49.344;6.240;2024-03-23T08:51:18;8.80;89.90
31837;DHT22;18401;49.344;6.240;2024-03-23T08:53:44;8.70;1.00
31837;DHT22;18401;49.344;6.240;2024-03-23T08:56:11;8.40;2.70
31837;DHT22;18401;49.344;6.240;2024-03-23T08:58:37;8.70;99.90
31837;DHT22;18401;49.344;6.240;2024-03-23T09:01:11;8.60;99.90
31837;DHT22;18401;49.344;6.240;2024-03-23T09:03:38;8.40;99.90
31837;DHT22;18401;49.344;6.240;2024-03-23T09:06:12;8.80;99.90
31837;DHT22;18401;49.344;6.240;2024-03-23T09:08:38;9.30;99.90
31837;DHT22;18401;49.344;6.240;2024-03-23T09:11:05;9.30;99.90
31837;DHT22;18401;49.344;6.240;2024-03-23T09:13:35;9.70;99.90
31837;DHT22;18401;49.344;6.240;2024-03-23T09:16:01;9.80;99.90
31837;DHT22;18401;49.344;6.240;2024-03-23T09:18:27;9.80;99.90
31837;DHT22;18401;49.344;6.240;2024-03-23T09:20:53;9.00;99.90
31837;DHT22;18401;49.344;6.240;2024-03-23T09:23:20;8.50;99.90
31837;DHT22;18401;49.344;6.240;2024-03-23T09:25:46;8.20;99.90
31837;DHT22;18401;49.344;6.240;2024-03-23T09:28:12;8.10;99.90
31837;DHT22;18401;49.344;6.240;2024-03-23T09:30:37;7.90;99.90
31837;DHT22;18401;49.344;6.240;2024-03-23T09:33:10;7.80;99.90
31837;DHT22;18401;49.344;6.240;2024-03-23T09:35:39;8.30;99.90
31837;DHT22;18401;49.344;6.240;2024-03-23T09:38:05;9.10;99.90
31837;DHT22;18401;49.344;6.240;2024-03-23T09:40:33;9.30;99.90
31837;DHT22;18401;49.344;6.240;2024-03-23T09:42:58;9.50;99.90
31837;DHT22;18401;49.344;6.240;2024-03-23T09:45:28;9.00;99.90
31837;DHT22;18401;49.344;6.240;2024-03-23T09:47:57;8.80;99.90
31837;DHT22;18401;49.344;6.240;2024-03-23T09:50:23;8.90;99.90
31837;DHT22;18401;49.344;6.240;2024-03-23T09:52:49;9.60;18.70
31837;DHT22;18401;49.344;6.240;2024-03-23T09:55:14;9.50;99.90
31837;DHT22;18401;49.344;6.240;2024-03-23T09:57:41;9.10;99.90
31837;DHT22;18401;49.344;6.240;2024-03-23T10:00:07;9.70;99.90
31837;DHT22;18401;49.344;6.240;2024-03-23T10:02:34;10.40;99.90
31837;DHT22;18401;49.344;6.240;2024-03-23T10:05:00;10.90;99.90
31837;DHT22;18401;49.344;6.240;2024-03-23T10:07:26;11.50;99.90
31837;DHT22;18401;49.344;6.240;2024-03-23T10:09:54;11.30;99.90
31837;DHT22;18401;49.344;6.240;2024-03-23T10:12:20;10.10;69.00
31837;DHT22;18401;49.344;6.240;2024-03-23T10:14:46;9.70;99.90
31837;DHT22;18401;49.344;6.240;2024-03-23T10:17:21;9.40;99.90
31837;DHT22;18401;49.344;6.240;2024-03-23T10:19:51;8.80;99.90
31837;DHT22;18401;49.344;6.240;2024-03-23T10:22:22;7.90;1.00
31837;DHT22;18401;49.344;6.240;2024-03-23T10:24:48;6.90;99.90
31837;DHT22;18401;49.344;6.240;2024-03-23T10:27:18;5.80;99.90
31837;DHT22;18401;49.344;6.240;2024-03-23T10:29:48;5.50;1.00
31837;DHT22;18401;49.344;6.240;2024-03-23T10:32:17;5.60;81.10
31837;DHT22;18401;49.344;6.240;2024-03-23T10:34:44;5.90;66.50
31837;DHT22;18401;49.344;6.240;2024-03-23T10:37:10;6.10;24.30
31837;DHT22;18401;49.344;6.240;2024-03-23T10:39:40;5.90;1.00
31837;DHT22;18401;49.344;6.240;2024-03-23T10:42:07;5.80;99.90
31837;DHT22;18401;49.344;6.240;2024-03-23T10:44:34;5.60;99.90
31837;DHT22;18401;49.344;6.240;2024-03-23T10:47:04;5.20;99.90
31837;DHT22;18401;49.344;6.240;2024-03-23T10:49:31;5.20;1.00
31837;DHT22;18401;49.344;6.240;2024-03-23T10:51:59;5.40;1.00
31837;DHT22;18401;49.344;6.240;2024-03-23T10:54:25;5.70;99.90
31837;DHT22;18401;49.344;6.240;2024-03-23T10:57:17;6.60;99.90
31837;DHT22;18401;49.344;6.240;2024-03-23T10:59:45;8.10;60.20
31837;DHT22;18401;49.344;6.240;2024-03-23T11:02:21;8.80;99.90
31837;DHT22;18401;49.344;6.240;2024-03-23T11:04:46;9.50;99.90
31837;DHT22;18401;49.344;6.240;2024-03-23T11:07:32;9.50;99.90
31837;DHT22;18401;49.344;6.240;2024-03-23T11:09:58;9.80;99.90
31837;DHT22;18401;49.344;6.240;2024-03-23T11:14:57;10.90;4.50
31837;DHT22;18401;49.344;6.240;2024-03-23T11:17:25;10.10;99.90
31837;DHT22;18401;49.344;6.240;2024-03-23T11:19:59;9.50;99.90
31837;DHT22;18401;49.344;6.240;2024-03-23T11:22:42;8.60;1.00
31837;DHT22;18401;49.344;6.240;2024-03-23T11:27:38;6.80;99.90
31837;DHT22;18401;49.344;6.240;2024-03-23T11:30:25;5.90;99.90
31837;DHT22;18401;49.344;6.240;2024-03-23T11:32:52;5.80;1.30
31837;DHT22;18401;49.344;6.240;2024-03-23T11:35:34;5.90;99.90
31837;DHT22;18401;49.344;6.240;2024-03-23T11:38:17;6.00;99.90
31837;DHT22;18401;49.344;6.240;2024-03-23T11:40:48;7.00;99.90
31837;DHT22;18401;49.344;6.240;2024-03-23T11:43:18;8.40;99.90
31837;DHT22;18401;49.344;6.240;2024-03-23T11:45:49;9.40;1.00
31837;DHT22;18401;49.344;6.240;2024-03-23T11:48:20;9.60;99.90
31837;DHT22;18401;49.344;6.240;2024-03-23T11:51:04;10.00;42.80
31837;DHT22;18401;49.344;6.240;2024-03-23T11:53:30;10.70;4.30
31837;DHT22;18401;49.344;6.240;2024-03-23T11:55:58;10.00;99.90
31837;DHT22;18401;49.344;6.240;2024-03-23T11:58:26;10.80;99.90
31837;DHT22;18401;49.344;6.240;2024-03-23T12:03:18;6.70;86.70
31837;DHT22;18401;49.344;6.240;2024-03-23T12:05:51;5.70;1.00
31837;DHT22;18401;49.344;6.240;2024-03-23T12:08:24;7.20;1.00
31837;DHT22;18401;49.344;6.240;2024-03-23T12:10:51;7.30;99.90
31837;DHT22;18401;49.344;6.240;2024-03-23T12:13:19;6.60;99.90
31837;DHT22;18401;49.344;6.240;2024-03-23T12:15:46;7.00;99.90
31837;DHT22;18401;49.344;6.240;2024-03-23T12:18:12;8.30;99.90
31837;DHT22;18401;49.344;6.240;2024-03-23T12:20:38;9.50;1.00
31837;DHT22;18401;49.344;6.240;2024-03-23T12:23:08;10.10;15.70
31837;DHT22;18401;49.344;6.240;2024-03-23T12:25:35;9.70;99.90
31837;DHT22;18401;49.344;6.240;2024-03-23T12:28:00;10.40;99.90
31837;DHT22;18401;49.344;6.240;2024-03-23T12:30:26;10.60;99.90
31837;DHT22;18401;49.344;6.240;2024-03-23T12:32:52;11.00;99.90
31837;DHT22;18401;49.344;6.240;2024-03-23T12:35:17;11.20;99.90
31837;DHT22;18401;49.344;6.240;2024-03-23T12:37:43;11.90;99.90
31837;DHT22;18401;49.344;6.240;2024-03-23T12:40:09;11.40;99.90
31837;DHT22;18401;49.344;6.240;2024-03-23T12:42:35;11.40;99.90
31837;DHT22;18401;49.344;6.240;2024-03-23T12:45:01;10.90;99.90
31837;DHT22;18401;49.344;6.240;2024-03-23T12:47:27;11.20;99.90
31837;DHT22;18401;49.344;6.240;2024-03-23T12:49:52;11.20;99.90
31837;DHT22;18401;49.344;6.240;2024-03-23T12:52:18;11.80;99.90
31837;DHT22;18401;49.344;6.240;2024-03-23T12:54:47;12.30;1.00
31837;DHT22;18401;49.344;6.240;2024-03-23T12:57:12;12.50;1.00
31837;DHT22;18401;49.344;6.240;2024-03-23T12:59:38;11.00;99.90
31837;DHT22;18401;49.344;6.240;2024-03-23T13:02:03;9.70;99.90
31837;DHT22;18401;49.344;6.240;2024-03-23T13:04:29;9.30;99.90
31837;DHT22;18401;49.344;6.240;2024-03-23T13:06:55;8.90;99.90
31837;DHT22;18401;49.344;6.240;2024-03-23T13:09:20;8.20;99.90
31837;DHT22;18401;49.344;6.240;2024-03-23T13:11:46;7.40;99.90
31837;DHT22;18401;49.344;6.240;2024-03-23T13:14:12;6.70;75.50
31837;DHT22;18401;49.344;6.240;2024-03-23T13:16:40;6.00;99.90
31837;DHT22;18401;49.344;6.240;2024-03-23T13:19:05;5.50;99.90
31837;DHT22;18401;49.344;6.240;2024-03-23T13:21:31;5.30;99.90
31837;DHT22;18401;49.344;6.240;2024-03-23T13:23:57;4.90;99.90
31837;DHT22;18401;49.344;6.240;2024-03-23T13:26:22;5.00;99.90
31837;DHT22;18401;49.344;6.240;2024-03-23T13:28:48;5.60;99.90
31837;DHT22;18401;49.344;6.240;2024-03-23T13:31:14;7.00;99.90
31837;DHT22;18401;49.344;6.240;2024-03-23T13:33:39;8.00;99.90
31837;DHT22;18401;49.344;6.240;2024-03-23T13:36:07;8.60;34.00
31837;DHT22;18401;49.344;6.240;2024-03-23T13:38:33;8.60;25.60
31837;DHT22;18401;49.344;6.240;2024-03-23T13:41:00;8.60;99.90
31837;DHT22;18401;49.344;6.240;2024-03-23T13:43:26;8.30;99.90
31837;DHT22;18401;49.344;6.240;2024-03-23T13:45:57;8.60;99.90
31837;DHT22;18401;49.344;6.240;2024-03-23T13:48:24;8.80;73.90
31837;DHT22;18401;49.344;6.240;2024-03-23T13:51:00;8.90;4.00
31837;DHT22;18401;49.344;6.240;2024-03-23T13:53:26;9.60;99.90
31837;DHT22;18401;49.344;6.240;2024-03-23T13:55:52;9.40;99.90
31837;DHT22;18401;49.344;6.240;2024-03-23T13:58:18;10.20;99.90
31837;DHT22;18401;49.344;6.240;2024-03-23T14:00:44;10.40;99.90
31837;DHT22;18401;49.344;6.240;2024-03-23T14:03:10;10.30;1.00
31837;DHT22;18401;49.344;6.240;2024-03-23T14:05:36;10.40;1.00
31837;DHT22;18401;49.344;6.240;2024-03-23T14:08:07;11.10;99.90
31837;DHT22;18401;49.344;6.240;2024-03-23T14:10:33;11.00;1.00
31837;DHT22;18401;49.344;6.240;2024-03-23T14:12:59;11.50;99.90
31837;DHT22;18401;49.344;6.240;2024-03-23T14:15:28;11.60;99.90
31837;DHT22;18401;49.344;6.240;2024-03-23T14:17:54;10.30;99.90
31837;DHT22;18401;49.344;6.240;2024-03-23T14:20:20;9.30;99.90
31837;DHT22;18401;49.344;6.240;2024-03-23T14:22:47;9.00;99.90
31837;DHT22;18401;49.344;6.240;2024-03-23T14:25:13;8.60;99.90
31837;DHT22;18401;49.344;6.240;2024-03-23T14:27:38;8.20;99.90
31837;DHT22;18401;49.344;6.240;2024-03-23T14:30:04;8.20;99.90
31837;DHT22;18401;49.344;6.240;2024-03-23T14:32:30;6.80;99.90
31837;DHT22;18401;49.344;6.240;2024-03-23T14:35:03;5.90;99.90
31837;DHT22;18401;49.344;6.240;2024-03-23T14:37:29;5.60;1.00
31837;DHT22;18401;49.344;6.240;2024-03-23T14:39:58;5.60;9.90
31837;DHT22;18401;49.344;6.240;2024-03-23T14:42:24;5.40;1.00
31837;DHT22;18401;49.344;6.240;2024-03-23T14:44:50;5.50;1.00
31837;DHT22;18401;49.344;6.240;2024-03-23T14:47:17;5.60;99.90
31837;DHT22;18401;49.344;6.240;2024-03-23T14:49:43;5.60;99.90
31837;DHT22;18401;49.344;6.240;2024-03-23T14:52:17;5.50;1.00
31837;DHT22;18401;49.344;6.240;2024-03-23T14:54:43;5.60;99.90
31837;DHT22;18401;49.344;6.240;2024-03-23T14:57:09;5.50;99.90
31837;DHT22;18401;49.344;6.240;2024-03-23T14:59:35;5.50;99.90
31837;DHT22;18401;49.344;6.240;2024-03-23T15:02:04;5.60;99.90
31837;DHT22;18401;49.344;6.240;2024-03-23T15:04:29;5.70;99.90
31837;DHT22;18401;49.344;6.240;2024-03-23T15:06:55;5.60;99.90
31837;DHT22;18401;49.344;6.240;2024-03-23T15:09:21;5.70;99.90
31837;DHT22;18401;49.344;6.240;2024-03-23T15:11:46;5.70;99.90
31837;DHT22;18401;49.344;6.240;2024-03-23T15:14:12;5.60;99.90
31837;DHT22;18401;49.344;6.240;2024-03-23T15:16:38;5.70;99.90
31837;DHT22;18401;49.344;6.240;2024-03-23T15:19:03;5.70;97.50
31837;DHT22;18401;49.344;6.240;2024-03-23T15:21:31;5.70;92.00
31837;DHT22;18401;49.344;6.240;2024-03-23T15:23:57;5.70;1.00
31837;DHT22;18401;49.344;6.240;2024-03-23T15:26:23;5.80;1.00
31837;DHT22;18401;49.344;6.240;2024-03-23T15:28:49;5.50;1.00
31837;DHT22;18401;49.344;6.240;2024-03-23T15:31:24;5.30;2.00
31837;DHT22;18401;49.344;6.240;2024-03-23T15:33:50;5.20;99.90
31837;DHT22;18401;49.344;6.240;2024-03-23T15:36:16;5.20;99.90
31837;DHT22;18401;49.344;6.240;2024-03-23T15:38:42;5.30;99.90
31837;DHT22;18401;49.344;6.240;2024-03-23T15:41:08;5.30;99.90
31837;DHT22;18401;49.344;6.240;2024-03-23T15:43:34;5.30;99.90
31837;DHT22;18401;49.344;6.240;2024-03-23T15:46:01;5.20;99.90
31837;DHT22;18401;49.344;6.240;2024-03-23T15:48:30;5.30;99.90
31837;DHT22;18401;49.344;6.240;2024-03-23T15:53:23;5.00;99.90
31837;DHT22;18401;49.344;6.240;2024-03-23T15:55:59;5.10;1.00
31837;DHT22;18401;49.344;6.240;2024-03-23T15:58:25;5.00;99.90
31837;DHT22;18401;49.344;6.240;2024-03-23T16:00:57;5.00;99.90
31837;DHT22;18401;49.344;6.240;2024-03-23T16:03:24;5.00;99.90
31837;DHT22;18401;49.344;6.240;2024-03-23T16:05:56;5.20;1.00
31837;DHT22;18401;49.344;6.240;2024-03-23T16:08:22;5.20;99.90
31837;DHT22;18401;49.344;6.240;2024-03-23T16:10:49;5.20;99.90
31837;DHT22;18401;49.344;6.240;2024-03-23T16:13:16;5.20;99.90
31837;DHT22;18401;49.344;6.240;2024-03-23T16:15:42;5.30;99.90
31837;DHT22;18401;49.344;6.240;2024-03-23T16:18:08;5.30;99.90
31837;DHT22;18401;49.344;6.240;2024-03-23T16:20:33;5.70;99.90
31837;DHT22;18401;49.344;6.240;2024-03-23T16:23:02;6.30;1.00
31837;DHT22;18401;49.344;6.240;2024-03-23T16:25:28;6.30;1.00
31837;DHT22;18401;49.344;6.240;2024-03-23T16:27:54;6.00;40.10
31837;DHT22;18401;49.344;6.240;2024-03-23T16:30:20;6.20;99.90
31837;DHT22;18401;49.344;6.240;2024-03-23T16:32:46;6.60;19.00
31837;DHT22;18401;49.344;6.240;2024-03-23T16:35:13;6.70;99.90
31837;DHT22;18401;49.344;6.240;2024-03-23T16:37:38;6.70;99.90
31837;DHT22;18401;49.344;6.240;2024-03-23T16:40:05;6.00;1.00
31837;DHT22;18401;49.344;6.240;2024-03-23T16:42:32;5.30;99.90
31837;DHT22;18401;49.344;6.240;2024-03-23T16:44:57;5.30;99.90
31837;DHT22;18401;49.344;6.240;2024-03-23T16:47:23;5.50;99.90
31837;DHT22;18401;49.344;6.240;2024-03-23T16:49:49;5.20;99.90
31837;DHT22;18401;49.344;6.240;2024-03-23T16:52:14;5.20;99.90
31837;DHT22;18401;49.344;6.240;2024-03-23T16:54:41;5.60;99.90